Current | Forecast
Updated: 4:00 PM JST on December 13, 2017
Observed at Nagasaki Airport, Japan
Temperature 43°F
Windchill 35°F
Humidity 39%
Dew Point 19°F
Wind North at 17 mph
Pressure 30.27 in (Steady)
Conditions Partly Cloudy
Visibility 6.2 miles
UV 1 out of 16
Clouds (FEW) : 4500 ft
Yesterday's Maximum 43°F
Yesterday's Minimum 37°F approx.
Yesterday's Heating Degree Days 25 approx.
Sunrise7:13 AM JST
Sunset5:15 PM JST
Moon Rise2:21 AM JST
Moon Set2:19 PM JST
Moon PhaseMoon Phase
Waning Crescent
Raw METARMETAR RJFU 130700Z 35015KT 9999 FEW045 SCT/// 06/M07 Q1025


Monday
. High: 75° F.
Tuesday
. High: 75° F.
Wednesday
. High: 71° F.
Thursday
. High: 73° F.
Friday
. High: 68° F.
Saturday
. High: 75° F.
Sunday
. High: 78° F.
Monday
. High: 78° F.

Units: English | Metric

Find the Weather for any City, State or Zipcode, or Country:

U.S. State List | Severe Weather | Tropical Storms | Ski Conditions
United States | Canada | Central America | South America | Asia | Europe | Australia | Africa | Islands

Weather Underground

© Copyright 2017
The Weather Company, LLC